createdAt,value
2018-09-08T00:02:26.282Z,72.40
2018-09-08T00:04:53.582Z,73.00
2018-09-08T00:07:21.010Z,72.90
2018-09-08T00:09:48.297Z,72.20
2018-09-08T00:12:15.618Z,72.40
2018-09-08T00:14:42.905Z,72.40
2018-09-08T00:17:10.221Z,72.40
2018-09-08T00:19:37.561Z,72.50
2018-09-08T00:22:05.140Z,72.20
2018-09-08T00:24:32.429Z,72.80
2018-09-08T00:26:59.795Z,73.00
2018-09-08T00:29:27.079Z,73.40
2018-09-08T00:31:54.386Z,73.40
2018-09-08T00:34:21.693Z,73.80
2018-09-08T00:36:48.977Z,74.30
2018-09-08T00:39:16.288Z,74.50
2018-09-08T00:41:43.579Z,74.80
2018-09-08T00:44:10.903Z,75.50
2018-09-08T00:46:38.231Z,74.90
2018-09-08T00:49:05.765Z,75.50
2018-09-08T00:51:33.073Z,75.80
2018-09-08T00:54:00.408Z,75.70
2018-09-08T00:56:27.727Z,75.70
2018-09-08T00:58:55.032Z,75.80
2018-09-08T01:01:22.462Z,75.90
2018-09-08T01:03:49.797Z,76.20
2018-09-08T01:06:17.074Z,76.50
2018-09-08T01:08:44.364Z,76.90
2018-09-08T01:11:11.673Z,76.70
2018-09-08T01:13:38.973Z,76.70
2018-09-08T01:16:06.306Z,76.70
2018-09-08T01:18:34.480Z,76.40
2018-09-08T01:21:01.803Z,76.50
2018-09-08T01:23:29.115Z,76.40
2018-09-08T01:25:56.425Z,76.30
2018-09-08T01:28:23.729Z,76.40
2018-09-08T01:30:51.107Z,76.90
2018-09-08T01:33:18.451Z,76.60
2018-09-08T01:35:45.745Z,77.20
2018-09-08T01:38:13.190Z,77.60
2018-09-08T01:40:40.505Z,77.30
2018-09-08T01:43:07.804Z,76.70
2018-09-08T01:45:35.098Z,76.50
2018-09-08T01:48:02.421Z,76.50
2018-09-08T01:50:29.734Z,76.50
2018-09-08T01:52:57.035Z,76.90
2018-09-08T01:55:24.338Z,76.70
2018-09-08T01:57:51.678Z,76.50
2018-09-08T02:00:19.004Z,76.60
2018-09-08T02:02:46.333Z,76.30
2018-09-08T02:05:13.626Z,76.40
2018-09-08T02:07:40.947Z,76.40
2018-09-08T02:10:08.243Z,77.00
2018-09-08T02:12:35.519Z,77.30
2018-09-08T02:15:03.028Z,77.70
2018-09-08T02:17:30.430Z,77.80
2018-09-08T02:19:57.710Z,77.50
2018-09-08T02:22:25.019Z,77.30
2018-09-08T02:24:52.320Z,77.10
2018-09-08T02:27:19.679Z,76.90
2018-09-08T02:29:53.738Z,77.40
2018-09-08T02:32:21.030Z,77.60
2018-09-08T02:34:48.357Z,77.70
2018-09-08T02:37:15.729Z,77.80
2018-09-08T02:39:43.033Z,77.80
2018-09-08T02:42:10.339Z,78.00
2018-09-08T02:44:37.654Z,78.10
2018-09-08T02:47:05.000Z,78.10
2018-09-08T02:49:45.269Z,78.20
2018-09-08T02:52:11.618Z,78.60
2018-09-08T02:54:37.983Z,78.90
2018-09-08T02:57:04.350Z,78.50
2018-09-08T02:59:30.699Z,78.30
2018-09-08T03:01:57.053Z,78.00
2018-09-08T03:04:23.394Z,78.40
2018-09-08T03:06:49.734Z,78.70
2018-09-08T03:09:16.083Z,78.60
2018-09-08T03:11:42.427Z,78.60
2018-09-08T03:14:08.775Z,78.80
2018-09-08T03:16:35.169Z,78.80
2018-09-08T03:19:01.540Z,78.80
2018-09-08T03:21:27.879Z,78.40
2018-09-08T03:23:54.239Z,78.30
2018-09-08T03:26:20.590Z,78.70
2018-09-08T03:28:47.144Z,78.90
2018-09-08T03:31:13.491Z,79.30
2018-09-08T03:33:39.837Z,79.20
2018-09-08T03:36:06.201Z,79.20
2018-09-08T03:38:32.601Z,78.50
2018-09-08T03:40:58.952Z,78.60
2018-09-08T03:43:25.299Z,79.50
2018-09-08T03:45:51.653Z,79.60
2018-09-08T03:48:18.024Z,79.80
2018-09-08T03:50:44.389Z,79.80
2018-09-08T03:53:10.747Z,79.40
2018-09-08T03:55:37.102Z,79.20
2018-09-08T03:58:03.483Z,79.10
2018-09-08T04:00:29.831Z,79.20
2018-09-08T04:02:57.154Z,79.40
2018-09-08T04:05:24.522Z,80.00
2018-09-08T04:07:51.830Z,80.10
2018-09-08T04:10:19.294Z,80.10
2018-09-08T04:12:46.627Z,79.70
2018-09-08T04:15:13.936Z,80.40
2018-09-08T04:17:41.275Z,80.40
2018-09-08T04:20:08.602Z,80.20
2018-09-08T04:22:35.927Z,80.40
2018-09-08T04:25:03.270Z,80.40
2018-09-08T04:27:30.585Z,79.90
2018-09-08T04:29:57.941Z,79.10
2018-09-08T04:32:25.277Z,79.30
2018-09-08T04:34:52.634Z,79.70
2018-09-08T04:37:19.994Z,79.60
2018-09-08T04:39:47.298Z,79.60
2018-09-08T04:42:14.627Z,79.20
2018-09-08T04:44:41.922Z,79.00
2018-09-08T04:47:09.245Z,78.50
2018-09-08T04:49:36.571Z,78.50
2018-09-08T04:52:04.019Z,78.70
2018-09-08T04:54:31.354Z,79.30
2018-09-08T04:56:58.728Z,79.30
2018-09-08T04:59:26.032Z,78.20
2018-09-08T05:01:53.346Z,78.30
2018-09-08T05:04:20.713Z,78.30
2018-09-08T05:06:48.015Z,78.40
2018-09-08T05:09:15.334Z,78.60
2018-09-08T05:11:42.635Z,78.90
2018-09-08T05:14:09.954Z,79.30
2018-09-08T05:16:37.328Z,78.80
2018-09-08T05:19:04.940Z,78.50
2018-09-08T05:21:32.320Z,78.60
2018-09-08T05:23:59.628Z,78.30
2018-09-08T05:26:26.943Z,78.70
2018-09-08T05:28:54.273Z,78.80
2018-09-08T05:31:21.584Z,78.90
2018-09-08T05:33:48.884Z,78.50
2018-09-08T05:36:16.266Z,78.50
2018-09-08T05:38:43.561Z,78.50
2018-09-08T05:41:10.901Z,78.10
2018-09-08T05:43:38.207Z,77.80
2018-09-08T05:46:05.567Z,77.80
2018-09-08T05:48:32.870Z,77.70
2018-09-08T05:51:00.193Z,77.20
2018-09-08T05:53:27.514Z,77.10
2018-09-08T05:55:54.805Z,77.80
2018-09-08T05:58:22.180Z,77.40
2018-09-08T06:00:49.474Z,77.50
2018-09-08T06:03:16.763Z,76.50
2018-09-08T06:05:44.086Z,77.10
2018-09-08T06:08:11.378Z,76.70
2018-09-08T06:10:38.692Z,76.10
2018-09-08T06:13:06.095Z,76.40
2018-09-08T06:15:33.403Z,76.10
2018-09-08T06:18:00.771Z,76.10
2018-09-08T06:20:28.103Z,76.00
2018-09-08T06:22:55.447Z,76.00
2018-09-08T06:25:22.830Z,76.60
2018-09-08T06:27:50.079Z,76.60
2018-09-08T06:30:17.392Z,76.20
2018-09-08T06:32:44.716Z,75.80
2018-09-08T06:35:12.049Z,75.80
2018-09-08T06:37:39.319Z,75.80
2018-09-08T06:40:06.648Z,75.90
2018-09-08T06:42:34.048Z,75.50
2018-09-08T06:45:01.353Z,75.50
2018-09-08T06:47:28.643Z,75.20
2018-09-08T06:49:55.943Z,75.40
2018-09-08T06:52:23.335Z,75.80
2018-09-08T06:54:50.646Z,75.70
2018-09-08T06:57:17.968Z,75.60
2018-09-08T06:59:45.277Z,75.30
2018-09-08T07:02:12.603Z,75.50
2018-09-08T07:04:39.895Z,75.90
2018-09-08T07:07:07.204Z,75.80
2018-09-08T07:09:34.627Z,75.50
2018-09-08T07:12:01.948Z,75.00
2018-09-08T07:14:29.267Z,74.50
2018-09-08T07:16:56.824Z,75.10
2018-09-08T07:22:10.552Z,74.50
2018-09-08T07:24:37.858Z,74.70
2018-09-08T07:27:05.233Z,74.40
2018-09-08T07:29:32.739Z,75.00
2018-09-08T07:32:00.048Z,75.80
2018-09-08T07:34:27.606Z,76.00
2018-09-08T07:36:54.911Z,75.60
2018-09-08T07:39:22.226Z,75.60
2018-09-08T07:41:49.601Z,74.70
2018-09-08T07:44:16.950Z,75.00
2018-09-08T07:46:44.264Z,75.50
2018-09-08T07:49:11.602Z,75.20
2018-09-08T07:51:38.904Z,74.20
2018-09-08T07:54:06.310Z,74.70
2018-09-08T07:56:33.547Z,74.30
2018-09-08T07:59:00.936Z,73.00
2018-09-08T08:01:28.305Z,72.40
2018-09-08T08:03:55.615Z,72.30
2018-09-08T08:06:22.958Z,71.30
2018-09-08T08:08:50.286Z,70.60
2018-09-08T08:11:17.695Z,70.90
2018-09-08T08:13:45.008Z,71.00
2018-09-08T08:16:12.424Z,70.10
2018-09-08T08:18:39.721Z,70.20
2018-09-08T08:21:07.143Z,68.40
2018-09-08T08:23:34.517Z,68.40
2018-09-08T08:26:02.016Z,67.00
2018-09-08T08:28:29.403Z,66.90
2018-09-08T08:30:56.840Z,66.00
2018-09-08T08:33:24.157Z,65.90
2018-09-08T08:35:51.456Z,66.00
2018-09-08T08:38:18.841Z,65.50
2018-09-08T08:40:46.207Z,65.70
2018-09-08T08:43:13.514Z,66.00
2018-09-08T08:45:40.807Z,65.80
2018-09-08T08:48:08.102Z,65.40
2018-09-08T08:50:46.815Z,64.80
2018-09-08T08:53:25.776Z,63.60
2018-09-08T08:55:53.145Z,63.70
2018-09-08T08:58:20.485Z,64.20
2018-09-08T09:00:47.803Z,63.10
2018-09-08T09:03:15.098Z,63.30
2018-09-08T09:05:42.427Z,61.70
2018-09-08T09:08:09.783Z,62.50
2018-09-08T09:10:37.156Z,62.70
2018-09-08T09:13:04.508Z,63.40
2018-09-08T09:15:32.205Z,62.30
2018-09-08T09:17:59.200Z,62.40
2018-09-08T09:20:38.011Z,61.70
2018-09-08T09:23:17.295Z,60.60
2018-09-08T09:25:44.227Z,60.70
2018-09-08T09:28:11.575Z,60.10
2018-09-08T09:30:38.907Z,60.00
2018-09-08T09:33:06.228Z,61.20
2018-09-08T09:35:33.574Z,60.90
2018-09-08T09:38:00.927Z,59.40
2018-09-08T09:40:28.617Z,59.20
2018-09-08T09:42:55.958Z,59.50
2018-09-08T09:45:23.283Z,59.30
2018-09-08T09:47:50.716Z,59.60
2018-09-08T09:50:18.061Z,59.50
2018-09-08T09:52:45.411Z,59.00
2018-09-08T09:55:12.729Z,58.00
2018-09-08T09:57:40.036Z,58.20
2018-09-08T10:00:08.559Z,57.60
2018-09-08T10:02:35.851Z,57.80
2018-09-08T10:05:03.233Z,57.90
2018-09-08T10:07:30.784Z,57.10
2018-09-08T10:09:58.291Z,56.40
2018-09-08T10:12:25.661Z,57.30
2018-09-08T10:14:53.177Z,56.40
2018-09-08T10:17:20.524Z,57.20
2018-09-08T10:19:47.879Z,57.00
2018-09-08T10:22:15.187Z,56.80
2018-09-08T10:24:42.534Z,57.50
2018-09-08T10:27:09.847Z,57.90
2018-09-08T10:29:37.224Z,58.10
2018-09-08T10:32:05.483Z,58.80
2018-09-08T10:34:32.275Z,57.60
2018-09-08T10:36:59.608Z,57.50
2018-09-08T10:39:27.274Z,57.20
2018-09-08T10:41:54.590Z,57.10
2018-09-08T10:44:21.927Z,57.60
2018-09-08T10:46:49.353Z,58.40
2018-09-08T10:49:16.655Z,58.30
2018-09-08T10:51:47.507Z,58.70
2018-09-08T10:54:14.815Z,57.80
2018-09-08T10:56:42.159Z,58.20
2018-09-08T10:59:09.471Z,57.70
2018-09-08T11:01:36.910Z,57.30
2018-09-08T11:04:04.131Z,57.30
2018-09-08T11:06:31.516Z,56.80
2018-09-08T11:08:58.843Z,57.30
2018-09-08T11:11:26.347Z,56.50
2018-09-08T11:13:53.704Z,57.80
2018-09-08T11:16:21.127Z,58.40
2018-09-08T11:18:48.523Z,58.00
2018-09-08T11:21:15.826Z,57.60
2018-09-08T11:23:43.143Z,58.30
2018-09-08T11:26:10.455Z,58.90
2018-09-08T11:28:37.771Z,57.80
2018-09-08T11:31:05.106Z,57.40
2018-09-08T11:33:32.424Z,57.50
2018-09-08T11:35:59.784Z,56.10
2018-09-08T11:38:27.156Z,56.80
2018-09-08T11:40:54.540Z,56.00
2018-09-08T11:43:21.858Z,57.00
2018-09-08T11:45:49.231Z,56.90
2018-09-08T11:48:16.777Z,56.30
2018-09-08T11:50:44.071Z,56.30
2018-09-08T11:53:11.446Z,56.30
2018-09-08T11:55:38.857Z,56.30
2018-09-08T11:58:06.107Z,56.10
2018-09-08T12:00:33.415Z,56.00
2018-09-08T12:03:00.799Z,55.80
2018-09-08T12:05:28.085Z,54.80
2018-09-08T12:07:55.511Z,55.60
2018-09-08T12:10:22.747Z,56.20
2018-09-08T12:12:50.178Z,54.90
2018-09-08T12:15:17.574Z,55.10
2018-09-08T12:17:44.983Z,55.80
2018-09-08T12:20:12.565Z,55.50
2018-09-08T12:22:40.151Z,55.40
2018-09-08T12:25:07.494Z,55.10
2018-09-08T12:27:34.802Z,54.40
2018-09-08T12:30:02.204Z,54.80
2018-09-08T12:32:29.641Z,55.70
2018-09-08T12:34:56.952Z,56.30
2018-09-08T12:37:24.249Z,56.30
2018-09-08T12:39:51.576Z,55.70
2018-09-08T12:42:18.915Z,55.60
2018-09-08T12:44:46.236Z,56.00
2018-09-08T12:47:13.538Z,55.50
2018-09-08T12:49:40.848Z,55.40
2018-09-08T12:52:08.217Z,54.80
2018-09-08T12:54:35.499Z,54.80
2018-09-08T12:57:02.880Z,54.60
2018-09-08T12:59:30.255Z,55.20
2018-09-08T13:01:57.753Z,54.70
2018-09-08T13:04:25.070Z,55.10
2018-09-08T13:06:52.408Z,55.60
2018-09-08T13:09:19.817Z,56.10
2018-09-08T13:11:47.135Z,56.00
2018-09-08T13:14:14.500Z,56.30
2018-09-08T13:16:41.890Z,55.50
2018-09-08T13:19:09.527Z,55.30
2018-09-08T13:21:36.893Z,56.70
2018-09-08T13:24:04.315Z,55.30
2018-09-08T13:26:31.618Z,55.80
2018-09-08T13:28:59.007Z,55.50
2018-09-08T13:31:26.324Z,54.20
2018-09-08T13:33:53.683Z,53.20
2018-09-08T13:36:20.964Z,54.00
2018-09-08T13:38:48.305Z,54.20
2018-09-08T13:41:15.748Z,55.20
2018-09-08T13:43:43.117Z,54.80
2018-09-08T13:46:10.465Z,54.00
2018-09-08T13:48:38.751Z,53.90
2018-09-08T13:51:06.077Z,54.10
2018-09-08T13:53:33.376Z,54.20
2018-09-08T13:56:00.718Z,54.50
2018-09-08T13:58:28.030Z,54.90
2018-09-08T14:00:55.381Z,53.90
2018-09-08T14:03:22.707Z,54.20
2018-09-08T14:05:50.003Z,53.20
2018-09-08T14:08:17.395Z,54.20
2018-09-08T14:10:44.823Z,54.20
2018-09-08T14:13:12.162Z,53.90
2018-09-08T14:15:39.583Z,53.40
2018-09-08T14:18:06.984Z,53.60
2018-09-08T14:20:34.387Z,53.40
2018-09-08T14:23:01.690Z,52.30
2018-09-08T14:25:29.020Z,53.30
2018-09-08T14:27:56.336Z,53.90
2018-09-08T14:30:23.704Z,53.60
2018-09-08T14:32:51.100Z,52.80
2018-09-08T14:35:18.443Z,53.90
2018-09-08T14:37:46.215Z,53.90
2018-09-08T14:40:13.770Z,53.80
2018-09-08T14:42:41.210Z,53.30
2018-09-08T14:45:08.640Z,53.30
2018-09-08T14:47:36.083Z,53.10
2018-09-08T14:50:03.303Z,53.20
2018-09-08T14:52:30.681Z,52.50
2018-09-08T14:54:57.991Z,52.50
2018-09-08T14:57:25.279Z,52.90
2018-09-08T14:59:52.821Z,52.70
2018-09-08T15:02:20.178Z,52.40
2018-09-08T15:04:47.626Z,52.50
2018-09-08T15:07:15.035Z,52.20
2018-09-08T15:09:42.411Z,52.20
2018-09-08T15:12:09.822Z,51.30
2018-09-08T15:14:37.221Z,52.50
2018-09-08T15:17:04.569Z,52.90
2018-09-08T15:19:32.210Z,53.30
2018-09-08T15:21:59.471Z,52.00
2018-09-08T15:24:26.861Z,51.70
2018-09-08T15:26:54.131Z,51.90
2018-09-08T15:29:21.466Z,53.20
2018-09-08T15:31:48.814Z,53.40
2018-09-08T15:36:24.684Z,53.70
2018-09-08T15:38:53.195Z,52.70
2018-09-08T15:41:20.571Z,53.10
2018-09-08T15:43:47.997Z,51.70
2018-09-08T15:46:15.331Z,52.70
2018-09-08T15:48:42.648Z,53.00
2018-09-08T15:51:09.969Z,52.50
2018-09-08T15:53:37.280Z,52.20
2018-09-08T15:56:04.628Z,51.00
2018-09-08T15:58:32.042Z,51.20
2018-09-08T16:00:59.285Z,52.50
2018-09-08T16:03:26.658Z,51.80
2018-09-08T16:05:53.949Z,52.60
2018-09-08T16:08:21.415Z,51.50
2018-09-08T16:10:48.843Z,51.50
2018-09-08T16:13:16.118Z,52.20
2018-09-08T16:15:43.419Z,50.80
2018-09-08T16:18:10.748Z,51.30
2018-09-08T16:20:38.064Z,52.70
2018-09-08T16:23:05.374Z,52.30
2018-09-08T16:25:32.694Z,52.20
2018-09-08T16:28:00.030Z,53.20
2018-09-08T16:30:27.427Z,53.80
2018-09-08T16:32:54.770Z,53.00
2018-09-08T16:35:22.109Z,53.10
2018-09-08T16:37:49.491Z,53.80
2018-09-08T16:40:16.800Z,53.30
2018-09-08T16:42:44.119Z,53.30
2018-09-08T16:45:11.455Z,53.80
2018-09-08T16:47:38.807Z,53.70
2018-09-08T16:50:06.168Z,53.80
2018-09-08T16:52:33.500Z,53.70
2018-09-08T16:55:00.736Z,53.90
2018-09-08T16:57:28.042Z,53.70
2018-09-08T16:59:55.413Z,53.90
2018-09-08T17:02:22.742Z,53.80
2018-09-08T17:04:50.131Z,53.90
2018-09-08T17:07:18.939Z,54.00
2018-09-08T17:09:46.302Z,53.90
2018-09-08T17:12:13.643Z,54.20
2018-09-08T17:14:41.059Z,53.90
2018-09-08T17:17:08.387Z,54.10
2018-09-08T17:19:35.770Z,53.60
2018-09-08T17:22:03.121Z,53.60
2018-09-08T17:24:30.410Z,54.00
2018-09-08T17:26:57.783Z,53.90
2018-09-08T17:29:25.120Z,54.40
2018-09-08T17:31:52.427Z,54.60
2018-09-08T17:34:19.771Z,55.00
2018-09-08T17:36:47.612Z,55.10
2018-09-08T17:39:15.157Z,55.10
2018-09-08T17:41:42.523Z,55.60
2018-09-08T17:44:09.861Z,55.50
2018-09-08T17:46:37.191Z,55.60
2018-09-08T17:49:04.527Z,55.70
2018-09-08T17:51:31.890Z,55.90
2018-09-08T17:53:59.236Z,56.10
2018-09-08T17:56:26.570Z,56.10
2018-09-08T17:58:53.921Z,56.30
2018-09-08T18:01:21.205Z,56.60
2018-09-08T18:03:48.874Z,56.00
2018-09-08T18:06:16.199Z,56.40
2018-09-08T18:08:43.538Z,56.20
2018-09-08T18:11:10.889Z,56.40
2018-09-08T18:13:38.467Z,56.50
2018-09-08T18:16:05.774Z,56.30
2018-09-08T18:18:33.083Z,56.40
2018-09-08T18:21:00.386Z,56.60
2018-09-08T18:23:27.710Z,57.10
2018-09-08T18:25:55.024Z,57.20
2018-09-08T18:28:22.347Z,57.20
2018-09-08T18:30:49.751Z,57.00
2018-09-08T18:33:17.035Z,57.70
2018-09-08T18:35:44.376Z,57.50
2018-09-08T18:38:11.739Z,57.60
2018-09-08T18:40:39.048Z,57.90
2018-09-08T18:43:06.546Z,57.70
2018-09-08T18:45:33.852Z,57.50
2018-09-08T18:48:01.155Z,57.60
2018-09-08T18:50:28.486Z,57.90
2018-09-08T18:52:55.777Z,58.00
2018-09-08T18:55:23.111Z,58.10
2018-09-08T18:57:50.617Z,58.70
2018-09-08T19:00:18.003Z,58.90
2018-09-08T19:02:45.323Z,58.90
2018-09-08T19:05:12.654Z,59.20
2018-09-08T19:07:39.976Z,59.40
2018-09-08T19:10:07.292Z,59.70
2018-09-08T19:12:34.615Z,59.70
2018-09-08T19:15:01.931Z,59.70
2018-09-08T19:17:29.236Z,60.00
2018-09-08T19:19:56.615Z,59.90
2018-09-08T19:22:23.881Z,60.10
2018-09-08T19:24:51.262Z,60.60
2018-09-08T19:27:18.577Z,60.80
2018-09-08T19:29:46.102Z,61.00
2018-09-08T19:32:13.420Z,61.20
2018-09-08T19:34:40.749Z,61.20
2018-09-08T19:37:08.051Z,61.10
2018-09-08T19:39:35.367Z,60.80
2018-09-08T19:42:02.678Z,60.80
2018-09-08T19:44:29.972Z,60.70
2018-09-08T19:46:57.281Z,60.90
2018-09-08T19:49:24.575Z,61.20
2018-09-08T19:51:51.947Z,61.40
2018-09-08T19:54:19.261Z,61.10
2018-09-08T19:56:46.674Z,61.30
2018-09-08T19:59:13.963Z,61.40
2018-09-08T20:01:41.303Z,61.50
2018-09-08T20:04:08.646Z,61.60
2018-09-08T20:06:35.978Z,61.80
2018-09-08T20:09:03.727Z,62.50
2018-09-08T20:11:31.052Z,62.20
2018-09-08T20:13:58.359Z,62.50
2018-09-08T20:16:25.670Z,62.50
2018-09-08T20:18:53.031Z,62.50
2018-09-08T20:21:20.395Z,62.90
2018-09-08T20:23:47.710Z,63.30
2018-09-08T20:26:15.019Z,63.20
2018-09-08T20:28:42.333Z,63.50
2018-09-08T20:31:09.636Z,63.60
2018-09-08T20:33:36.927Z,63.80
2018-09-08T20:36:04.231Z,63.80
2018-09-08T20:38:31.647Z,63.60
2018-09-08T20:40:58.956Z,63.80
2018-09-08T20:43:26.279Z,63.70
2018-09-08T20:45:53.605Z,64.00
2018-09-08T20:48:21.031Z,65.00
2018-09-08T20:50:48.351Z,65.10
2018-09-08T20:53:15.771Z,64.30
2018-09-08T20:55:43.083Z,64.70
2018-09-08T20:58:10.897Z,64.70
2018-09-08T21:00:38.207Z,64.70
2018-09-08T21:03:05.596Z,65.30
2018-09-08T21:05:32.888Z,65.50
2018-09-08T21:08:00.224Z,65.50
2018-09-08T21:10:27.518Z,65.30
2018-09-08T21:12:54.872Z,65.20
2018-09-08T21:15:22.198Z,65.30
2018-09-08T21:17:49.523Z,65.90
2018-09-08T21:20:16.856Z,66.20
2018-09-08T21:22:44.159Z,66.40
2018-09-08T21:25:11.451Z,66.20
2018-09-08T21:27:38.819Z,66.80
2018-09-08T21:30:06.074Z,66.90
2018-09-08T21:32:33.406Z,67.80
2018-09-08T21:35:00.720Z,67.50
2018-09-08T21:37:28.043Z,67.50
2018-09-08T21:39:55.471Z,66.80
2018-09-08T21:42:22.841Z,67.00
2018-09-08T21:44:50.146Z,67.10
2018-09-08T21:47:17.448Z,67.20
2018-09-08T21:49:44.747Z,67.20
2018-09-08T21:52:12.113Z,67.60
2018-09-08T21:54:39.399Z,68.10
2018-09-08T21:57:06.723Z,68.10
2018-09-08T21:59:34.040Z,67.90
2018-09-08T22:02:01.374Z,68.00
2018-09-08T22:04:28.707Z,68.30
2018-09-08T22:06:56.009Z,68.50
2018-09-08T22:09:23.354Z,68.80
2018-09-08T22:11:50.672Z,68.80
2018-09-08T22:14:17.982Z,68.60
2018-09-08T22:16:45.339Z,68.50
2018-09-08T22:19:12.640Z,68.60
2018-09-08T22:21:40.176Z,68.90
2018-09-08T22:24:07.501Z,68.70
2018-09-08T22:26:35.156Z,68.20
2018-09-08T22:29:02.531Z,68.40
2018-09-08T22:31:29.890Z,69.20
2018-09-08T22:33:57.200Z,69.40
2018-09-08T22:36:24.523Z,69.70
2018-09-08T22:38:51.881Z,69.70
2018-09-08T22:41:19.184Z,70.00
2018-09-08T22:43:46.468Z,70.30
2018-09-08T22:46:13.770Z,70.20
2018-09-08T22:48:41.130Z,70.30
2018-09-08T22:51:08.498Z,70.20
2018-09-08T22:53:35.809Z,70.20
2018-09-08T22:56:03.250Z,70.30
2018-09-08T22:58:30.573Z,70.40
2018-09-08T23:00:57.891Z,70.50
2018-09-08T23:03:25.236Z,70.70
2018-09-08T23:05:52.542Z,70.80
2018-09-08T23:08:19.860Z,71.10
2018-09-08T23:10:47.244Z,70.40
2018-09-08T23:13:14.508Z,70.50
2018-09-08T23:15:41.800Z,70.70
2018-09-08T23:18:09.175Z,71.00
2018-09-08T23:20:36.471Z,70.40
2018-09-08T23:23:03.839Z,70.50
2018-09-08T23:25:31.140Z,70.20
2018-09-08T23:27:58.447Z,70.10
2018-09-08T23:30:25.763Z,70.50
2018-09-08T23:32:53.104Z,70.10
2018-09-08T23:35:20.423Z,70.00
2018-09-08T23:37:47.776Z,70.20
2018-09-08T23:40:15.064Z,70.70
2018-09-08T23:42:42.378Z,71.00
2018-09-08T23:45:09.702Z,71.20
2018-09-08T23:47:37.048Z,71.30
2018-09-08T23:50:04.343Z,71.30
2018-09-08T23:52:31.640Z,71.20
2018-09-08T23:54:58.964Z,71.10
2018-09-08T23:57:26.269Z,71.20
2018-09-08T23:59:53.613Z,71.30
